LiveATC.Net - Listen to live air traffic control over the Internet!

ICAO: YBAS  IATA: ASP   Airport: Alice Springs Airport
City: Alice Springs   State/Province: Northern Territory
Country: Australia   Continent: Oceania
YBAS METAR Weather: YBAS 202200Z AUTO 24005KT 9999 // SCT120 20/08 Q1018
YBAS Flight Activity (FlightAware)
YBAS Tower/Center
Feed Status: UP   Listeners: 0
Listen right in your browser - requires Flash (in browser, requires Flash)
Click here to listen with your own player (launches your MP3 player)
YBAS Tower/Center Audio Archives
Alice Tower/CTAF118.300
Melbourne Center (above FL280)128.850
Melbourne Center (below FL280)119.800

Alice Springs Aircraft Movements


Unauthorized use prohibited. See Terms of Service

Find LiveATC Audio Streams

Airport/ARTCC Code

Frequency Search
(e.g., 124.400, 128.75)
Site-wide search

Browse LiveATC Feeds
LiveATC Coverage Map
Top 50 LiveATC Feeds
Bad Weather Areas

Offer a LiveATC Feed
Press Inquiries

LiveATC on iPhone
LiveATC on Android

Windows Phone
Windows 8/10

LiveATC Mobile
(Mobile browser)

ATC Audio Archives
Interesting Recordings

LiveATC Forums

Home Page
Make a Donation
Terms of Use
Privacy Policy

Canadian Air Freqs


FAA Airport Status
Nat'l Airspace Status
Arrival Demand Charts

Server Software By: